sensor_id;sensor_type;location;lat;lon;timestamp;P1;durP1;ratioP1;P2;durP2;ratioP2
73382;SDS011;61600;48.126;11.542;2023-11-19T00:00:43;4.00;;;1.90;;
73382;SDS011;61600;48.126;11.542;2023-11-19T00:03:09;2.90;;;1.45;;
73382;SDS011;61600;48.126;11.542;2023-11-19T00:05:36;3.47;;;1.70;;
73382;SDS011;61600;48.126;11.542;2023-11-19T00:08:01;4.50;;;1.60;;
73382;SDS011;61600;48.126;11.542;2023-11-19T00:10:27;2.63;;;1.65;;
73382;SDS011;61600;48.126;11.542;2023-11-19T00:12:53;2.33;;;1.30;;
73382;SDS011;61600;48.126;11.542;2023-11-19T00:15:18;2.58;;;1.50;;
73382;SDS011;61600;48.126;11.542;2023-11-19T00:17:45;2.83;;;1.80;;
73382;SDS011;61600;48.126;11.542;2023-11-19T00:20:12;3.05;;;1.50;;
73382;SDS011;61600;48.126;11.542;2023-11-19T00:22:38;2.47;;;1.35;;
73382;SDS011;61600;48.126;11.542;2023-11-19T00:25:04;2.47;;;1.60;;
73382;SDS011;61600;48.126;11.542;2023-11-19T00:27:31;2.92;;;1.58;;
73382;SDS011;61600;48.126;11.542;2023-11-19T00:29:56;2.95;;;1.50;;
73382;SDS011;61600;48.126;11.542;2023-11-19T00:32:22;2.53;;;1.58;;
73382;SDS011;61600;48.126;11.542;2023-11-19T00:34:48;2.22;;;1.38;;
73382;SDS011;61600;48.126;11.542;2023-11-19T00:37:14;2.10;;;1.23;;
73382;SDS011;61600;48.126;11.542;2023-11-19T00:39:40;2.72;;;1.45;;
73382;SDS011;61600;48.126;11.542;2023-11-19T00:42:06;2.83;;;1.27;;
73382;SDS011;61600;48.126;11.542;2023-11-19T00:44:32;3.58;;;1.42;;
73382;SDS011;61600;48.126;11.542;2023-11-19T00:46:57;2.90;;;1.30;;
73382;SDS011;61600;48.126;11.542;2023-11-19T00:49:24;2.00;;;1.20;;
73382;SDS011;61600;48.126;11.542;2023-11-19T00:51:50;2.97;;;1.73;;
73382;SDS011;61600;48.126;11.542;2023-11-19T00:54:15;1.95;;;1.05;;
73382;SDS011;61600;48.126;11.542;2023-11-19T00:56:41;2.50;;;1.30;;
73382;SDS011;61600;48.126;11.542;2023-11-19T00:59:07;2.90;;;1.40;;
73382;SDS011;61600;48.126;11.542;2023-11-19T01:01:32;3.78;;;1.52;;
73382;SDS011;61600;48.126;11.542;2023-11-19T01:03:59;3.30;;;1.20;;
73382;SDS011;61600;48.126;11.542;2023-11-19T01:06:28;3.10;;;1.52;;
73382;SDS011;61600;48.126;11.542;2023-11-19T01:08:57;2.67;;;1.42;;
73382;SDS011;61600;48.126;11.542;2023-11-19T01:11:23;3.53;;;1.50;;
73382;SDS011;61600;48.126;11.542;2023-11-19T01:13:50;1.83;;;1.10;;
73382;SDS011;61600;48.126;11.542;2023-11-19T01:16:16;2.55;;;1.10;;
73382;SDS011;61600;48.126;11.542;2023-11-19T01:18:42;2.47;;;1.48;;
73382;SDS011;61600;48.126;11.542;2023-11-19T01:21:07;3.28;;;1.35;;
73382;SDS011;61600;48.126;11.542;2023-11-19T01:23:34;3.17;;;1.55;;
73382;SDS011;61600;48.126;11.542;2023-11-19T01:25:59;2.30;;;1.38;;
73382;SDS011;61600;48.126;11.542;2023-11-19T01:28:25;2.90;;;1.45;;
73382;SDS011;61600;48.126;11.542;2023-11-19T01:30:51;3.70;;;1.45;;
73382;SDS011;61600;48.126;11.542;2023-11-19T01:33:17;2.33;;;1.27;;
73382;SDS011;61600;48.126;11.542;2023-11-19T01:35:43;2.70;;;1.42;;
73382;SDS011;61600;48.126;11.542;2023-11-19T01:38:09;2.80;;;1.30;;
73382;SDS011;61600;48.126;11.542;2023-11-19T01:40:36;3.17;;;1.10;;
73382;SDS011;61600;48.126;11.542;2023-11-19T01:43:02;5.53;;;1.70;;
73382;SDS011;61600;48.126;11.542;2023-11-19T01:45:29;2.17;;;1.23;;
73382;SDS011;61600;48.126;11.542;2023-11-19T01:47:56;3.05;;;1.25;;
73382;SDS011;61600;48.126;11.542;2023-11-19T01:50:23;2.45;;;1.27;;
73382;SDS011;61600;48.126;11.542;2023-11-19T01:52:52;2.05;;;1.20;;
73382;SDS011;61600;48.126;11.542;2023-11-19T01:55:20;2.65;;;1.20;;
73382;SDS011;61600;48.126;11.542;2023-11-19T01:57:46;3.58;;;1.42;;
73382;SDS011;61600;48.126;11.542;2023-11-19T02:00:14;3.55;;;1.02;;
73382;SDS011;61600;48.126;11.542;2023-11-19T02:05:08;1.75;;;1.00;;
73382;SDS011;61600;48.126;11.542;2023-11-19T02:07:36;2.38;;;1.10;;
73382;SDS011;61600;48.126;11.542;2023-11-19T02:10:01;2.70;;;1.38;;
73382;SDS011;61600;48.126;11.542;2023-11-19T02:12:31;1.77;;;1.00;;
73382;SDS011;61600;48.126;11.542;2023-11-19T02:15:01;1.98;;;1.25;;
73382;SDS011;61600;48.126;11.542;2023-11-19T02:19:54;1.63;;;0.93;;
73382;SDS011;61600;48.126;11.542;2023-11-19T02:22:19;2.15;;;1.00;;
73382;SDS011;61600;48.126;11.542;2023-11-19T02:24:45;2.08;;;1.05;;
73382;SDS011;61600;48.126;11.542;2023-11-19T02:27:16;1.42;;;0.80;;
73382;SDS011;61600;48.126;11.542;2023-11-19T02:29:49;2.20;;;1.20;;
73382;SDS011;61600;48.126;11.542;2023-11-19T02:32:15;1.85;;;0.82;;
73382;SDS011;61600;48.126;11.542;2023-11-19T02:34:40;1.58;;;0.98;;
73382;SDS011;61600;48.126;11.542;2023-11-19T02:37:06;2.75;;;0.90;;
73382;SDS011;61600;48.126;11.542;2023-11-19T02:39:32;2.15;;;0.90;;
73382;SDS011;61600;48.126;11.542;2023-11-19T02:41:57;2.10;;;0.82;;
73382;SDS011;61600;48.126;11.542;2023-11-19T02:44:23;1.00;;;0.80;;
73382;SDS011;61600;48.126;11.542;2023-11-19T02:46:49;1.27;;;0.70;;
73382;SDS011;61600;48.126;11.542;2023-11-19T02:49:14;1.35;;;0.70;;
73382;SDS011;61600;48.126;11.542;2023-11-19T02:51:40;1.15;;;0.63;;
73382;SDS011;61600;48.126;11.542;2023-11-19T02:54:07;2.15;;;0.70;;
73382;SDS011;61600;48.126;11.542;2023-11-19T02:56:32;1.27;;;0.77;;
73382;SDS011;61600;48.126;11.542;2023-11-19T02:59:02;0.65;;;0.50;;
73382;SDS011;61600;48.126;11.542;2023-11-19T03:01:39;1.25;;;0.70;;
73382;SDS011;61600;48.126;11.542;2023-11-19T03:04:09;0.85;;;0.70;;
73382;SDS011;61600;48.126;11.542;2023-11-19T03:06:37;0.63;;;0.63;;
73382;SDS011;61600;48.126;11.542;2023-11-19T03:09:03;0.85;;;0.40;;
73382;SDS011;61600;48.126;11.542;2023-11-19T03:11:33;0.85;;;0.40;;
73382;SDS011;61600;48.126;11.542;2023-11-19T03:13:58;0.70;;;0.60;;
73382;SDS011;61600;48.126;11.542;2023-11-19T03:16:24;1.05;;;0.50;;
73382;SDS011;61600;48.126;11.542;2023-11-19T03:18:50;0.82;;;0.50;;
73382;SDS011;61600;48.126;11.542;2023-11-19T03:21:15;0.75;;;0.40;;
73382;SDS011;61600;48.126;11.542;2023-11-19T03:23:41;0.73;;;0.50;;
73382;SDS011;61600;48.126;11.542;2023-11-19T03:26:06;0.68;;;0.40;;
73382;SDS011;61600;48.126;11.542;2023-11-19T03:28:33;0.77;;;0.50;;
73382;SDS011;61600;48.126;11.542;2023-11-19T03:31:00;1.15;;;0.50;;
73382;SDS011;61600;48.126;11.542;2023-11-19T03:33:25;0.60;;;0.45;;
73382;SDS011;61600;48.126;11.542;2023-11-19T03:35:53;3.05;;;0.65;;
73382;SDS011;61600;48.126;11.542;2023-11-19T03:38:18;0.63;;;0.50;;
73382;SDS011;61600;48.126;11.542;2023-11-19T03:40:44;2.28;;;0.40;;
73382;SDS011;61600;48.126;11.542;2023-11-19T03:43:09;0.73;;;0.45;;
73382;SDS011;61600;48.126;11.542;2023-11-19T03:45:35;0.98;;;0.65;;
73382;SDS011;61600;48.126;11.542;2023-11-19T03:48:01;0.95;;;0.60;;
73382;SDS011;61600;48.126;11.542;2023-11-19T03:50:27;0.40;;;0.35;;
73382;SDS011;61600;48.126;11.542;2023-11-19T03:52:52;1.08;;;0.57;;
73382;SDS011;61600;48.126;11.542;2023-11-19T03:55:18;1.00;;;0.43;;
73382;SDS011;61600;48.126;11.542;2023-11-19T03:57:43;1.27;;;0.57;;
73382;SDS011;61600;48.126;11.542;2023-11-19T04:00:09;1.00;;;0.45;;
73382;SDS011;61600;48.126;11.542;2023-11-19T04:02:39;0.55;;;0.40;;
73382;SDS011;61600;48.126;11.542;2023-11-19T04:05:05;2.88;;;0.40;;
73382;SDS011;61600;48.126;11.542;2023-11-19T04:07:32;0.38;;;0.30;;
73382;SDS011;61600;48.126;11.542;2023-11-19T04:09:58;0.75;;;0.45;;
73382;SDS011;61600;48.126;11.542;2023-11-19T04:12:24;0.82;;;0.55;;
73382;SDS011;61600;48.126;11.542;2023-11-19T04:14:50;2.47;;;0.57;;
73382;SDS011;61600;48.126;11.542;2023-11-19T04:17:15;0.77;;;0.32;;
73382;SDS011;61600;48.126;11.542;2023-11-19T04:19:41;0.88;;;0.30;;
73382;SDS011;61600;48.126;11.542;2023-11-19T04:22:09;0.82;;;0.50;;
73382;SDS011;61600;48.126;11.542;2023-11-19T04:24:35;0.70;;;0.40;;
73382;SDS011;61600;48.126;11.542;2023-11-19T04:27:00;0.68;;;0.50;;
73382;SDS011;61600;48.126;11.542;2023-11-19T04:29:26;0.68;;;0.30;;
73382;SDS011;61600;48.126;11.542;2023-11-19T04:31:51;1.13;;;0.32;;
73382;SDS011;61600;48.126;11.542;2023-11-19T04:34:17;0.47;;;0.47;;
73382;SDS011;61600;48.126;11.542;2023-11-19T04:36:43;0.52;;;0.38;;
73382;SDS011;61600;48.126;11.542;2023-11-19T04:39:09;0.95;;;0.32;;
73382;SDS011;61600;48.126;11.542;2023-11-19T04:41:45;0.80;;;0.30;;
73382;SDS011;61600;48.126;11.542;2023-11-19T04:44:11;2.42;;;0.50;;
73382;SDS011;61600;48.126;11.542;2023-11-19T04:46:37;0.90;;;0.30;;
73382;SDS011;61600;48.126;11.542;2023-11-19T04:49:03;1.95;;;0.60;;
73382;SDS011;61600;48.126;11.542;2023-11-19T04:51:29;0.40;;;0.40;;
73382;SDS011;61600;48.126;11.542;2023-11-19T04:53:54;0.75;;;0.40;;
73382;SDS011;61600;48.126;11.542;2023-11-19T04:56:20;0.90;;;0.47;;
73382;SDS011;61600;48.126;11.542;2023-11-19T04:58:48;1.17;;;0.43;;
73382;SDS011;61600;48.126;11.542;2023-11-19T05:01:14;1.13;;;0.50;;
73382;SDS011;61600;48.126;11.542;2023-11-19T05:03:42;0.90;;;0.40;;
73382;SDS011;61600;48.126;11.542;2023-11-19T05:06:08;0.98;;;0.47;;
73382;SDS011;61600;48.126;11.542;2023-11-19T05:08:33;0.77;;;0.40;;
73382;SDS011;61600;48.126;11.542;2023-11-19T05:10:59;0.88;;;0.50;;
73382;SDS011;61600;48.126;11.542;2023-11-19T05:13:24;0.75;;;0.38;;
73382;SDS011;61600;48.126;11.542;2023-11-19T05:15:50;0.90;;;0.50;;
73382;SDS011;61600;48.126;11.542;2023-11-19T05:18:15;1.40;;;0.65;;
73382;SDS011;61600;48.126;11.542;2023-11-19T05:20:41;1.20;;;0.60;;
73382;SDS011;61600;48.126;11.542;2023-11-19T05:23:06;1.33;;;0.57;;
73382;SDS011;61600;48.126;11.542;2023-11-19T05:25:32;1.25;;;0.65;;
73382;SDS011;61600;48.126;11.542;2023-11-19T05:27:57;0.93;;;0.68;;
73382;SDS011;61600;48.126;11.542;2023-11-19T05:30:23;1.60;;;0.55;;
73382;SDS011;61600;48.126;11.542;2023-11-19T05:32:48;1.02;;;0.80;;
73382;SDS011;61600;48.126;11.542;2023-11-19T05:35:14;1.40;;;0.88;;
73382;SDS011;61600;48.126;11.542;2023-11-19T05:37:40;0.93;;;0.60;;
73382;SDS011;61600;48.126;11.542;2023-11-19T05:40:05;1.17;;;0.50;;
73382;SDS011;61600;48.126;11.542;2023-11-19T05:45:04;0.65;;;0.47;;
73382;SDS011;61600;48.126;11.542;2023-11-19T05:47:30;4.63;;;0.82;;
73382;SDS011;61600;48.126;11.542;2023-11-19T05:49:56;0.88;;;0.60;;
73382;SDS011;61600;48.126;11.542;2023-11-19T05:52:21;0.90;;;0.50;;
73382;SDS011;61600;48.126;11.542;2023-11-19T05:54:49;1.15;;;0.60;;
73382;SDS011;61600;48.126;11.542;2023-11-19T05:57:17;1.13;;;0.60;;
73382;SDS011;61600;48.126;11.542;2023-11-19T05:59:48;0.65;;;0.47;;
73382;SDS011;61600;48.126;11.542;2023-11-19T06:02:13;1.90;;;0.50;;
73382;SDS011;61600;48.126;11.542;2023-11-19T06:04:39;0.85;;;0.75;;
73382;SDS011;61600;48.126;11.542;2023-11-19T06:07:08;1.98;;;0.50;;
73382;SDS011;61600;48.126;11.542;2023-11-19T06:09:33;0.95;;;0.50;;
73382;SDS011;61600;48.126;11.542;2023-11-19T06:11:59;1.17;;;0.60;;
73382;SDS011;61600;48.126;11.542;2023-11-19T06:14:27;2.10;;;0.40;;
73382;SDS011;61600;48.126;11.542;2023-11-19T06:16:52;1.20;;;0.57;;
73382;SDS011;61600;48.126;11.542;2023-11-19T06:19:18;2.35;;;0.80;;
73382;SDS011;61600;48.126;11.542;2023-11-19T06:21:44;0.73;;;0.40;;
73382;SDS011;61600;48.126;11.542;2023-11-19T06:24:09;1.27;;;0.50;;
73382;SDS011;61600;48.126;11.542;2023-11-19T06:26:35;2.55;;;0.52;;
73382;SDS011;61600;48.126;11.542;2023-11-19T06:29:00;0.75;;;0.45;;
73382;SDS011;61600;48.126;11.542;2023-11-19T06:31:26;0.98;;;0.40;;
73382;SDS011;61600;48.126;11.542;2023-11-19T06:33:51;1.13;;;0.45;;
73382;SDS011;61600;48.126;11.542;2023-11-19T06:36:17;1.85;;;0.30;;
73382;SDS011;61600;48.126;11.542;2023-11-19T06:38:43;0.75;;;0.50;;
73382;SDS011;61600;48.126;11.542;2023-11-19T06:41:08;0.70;;;0.40;;
73382;SDS011;61600;48.126;11.542;2023-11-19T06:43:34;0.43;;;0.35;;
73382;SDS011;61600;48.126;11.542;2023-11-19T06:46:00;0.57;;;0.35;;
73382;SDS011;61600;48.126;11.542;2023-11-19T06:48:27;0.45;;;0.40;;
73382;SDS011;61600;48.126;11.542;2023-11-19T06:50:52;19.50;;;2.85;;
73382;SDS011;61600;48.126;11.542;2023-11-19T06:53:18;5.22;;;0.40;;
73382;SDS011;61600;48.126;11.542;2023-11-19T06:55:43;0.82;;;0.50;;
73382;SDS011;61600;48.126;11.542;2023-11-19T06:58:09;0.30;;;0.20;;
73382;SDS011;61600;48.126;11.542;2023-11-19T07:00:34;0.50;;;0.40;;
73382;SDS011;61600;48.126;11.542;2023-11-19T07:03:01;0.75;;;0.50;;
73382;SDS011;61600;48.126;11.542;2023-11-19T07:05:27;5.65;;;2.03;;
73382;SDS011;61600;48.126;11.542;2023-11-19T07:07:53;1.08;;;0.50;;
73382;SDS011;61600;48.126;11.542;2023-11-19T07:10:19;0.70;;;0.30;;
73382;SDS011;61600;48.126;11.542;2023-11-19T07:12:45;0.38;;;0.38;;
73382;SDS011;61600;48.126;11.542;2023-11-19T07:15:10;0.85;;;0.47;;
73382;SDS011;61600;48.126;11.542;2023-11-19T07:17:38;0.80;;;0.50;;
73382;SDS011;61600;48.126;11.542;2023-11-19T07:20:05;0.77;;;0.57;;
73382;SDS011;61600;48.126;11.542;2023-11-19T07:22:31;0.73;;;0.30;;
73382;SDS011;61600;48.126;11.542;2023-11-19T07:24:56;0.45;;;0.40;;
73382;SDS011;61600;48.126;11.542;2023-11-19T07:27:22;0.80;;;0.40;;
73382;SDS011;61600;48.126;11.542;2023-11-19T07:29:49;0.40;;;0.38;;
73382;SDS011;61600;48.126;11.542;2023-11-19T07:32:15;0.40;;;0.30;;
73382;SDS011;61600;48.126;11.542;2023-11-19T07:34:40;0.70;;;0.43;;
73382;SDS011;61600;48.126;11.542;2023-11-19T07:37:06;0.60;;;0.50;;
73382;SDS011;61600;48.126;11.542;2023-11-19T07:39:32;1.13;;;0.47;;
73382;SDS011;61600;48.126;11.542;2023-11-19T07:41:58;2.28;;;0.90;;
73382;SDS011;61600;48.126;11.542;2023-11-19T07:44:24;3.22;;;1.55;;
73382;SDS011;61600;48.126;11.542;2023-11-19T07:46:49;0.40;;;0.30;;
73382;SDS011;61600;48.126;11.542;2023-11-19T07:49:15;1.13;;;0.45;;
73382;SDS011;61600;48.126;11.542;2023-11-19T07:51:41;0.50;;;0.30;;
73382;SDS011;61600;48.126;11.542;2023-11-19T07:54:07;0.88;;;0.32;;
73382;SDS011;61600;48.126;11.542;2023-11-19T07:56:35;0.52;;;0.30;;
73382;SDS011;61600;48.126;11.542;2023-11-19T07:59:01;0.65;;;0.40;;
73382;SDS011;61600;48.126;11.542;2023-11-19T08:01:27;0.70;;;0.47;;
73382;SDS011;61600;48.126;11.542;2023-11-19T08:03:53;3.78;;;1.83;;
73382;SDS011;61600;48.126;11.542;2023-11-19T08:06:19;1.30;;;0.70;;
73382;SDS011;61600;48.126;11.542;2023-11-19T08:08:45;0.73;;;0.50;;
73382;SDS011;61600;48.126;11.542;2023-11-19T08:11:10;0.10;;;0.10;;
73382;SDS011;61600;48.126;11.542;2023-11-19T08:13:36;0.52;;;0.40;;
73382;SDS011;61600;48.126;11.542;2023-11-19T08:16:01;0.95;;;0.40;;
73382;SDS011;61600;48.126;11.542;2023-11-19T08:18:27;0.50;;;0.30;;
73382;SDS011;61600;48.126;11.542;2023-11-19T08:20:53;0.82;;;0.38;;
73382;SDS011;61600;48.126;11.542;2023-11-19T08:23:19;0.38;;;0.30;;
73382;SDS011;61600;48.126;11.542;2023-11-19T08:25:46;1.00;;;0.50;;
73382;SDS011;61600;48.126;11.542;2023-11-19T08:28:12;1.02;;;0.70;;
73382;SDS011;61600;48.126;11.542;2023-11-19T08:30:38;1.63;;;0.60;;
73382;SDS011;61600;48.126;11.542;2023-11-19T08:33:03;0.40;;;0.40;;
73382;SDS011;61600;48.126;11.542;2023-11-19T08:35:31;0.40;;;0.40;;
73382;SDS011;61600;48.126;11.542;2023-11-19T08:37:57;0.43;;;0.40;;
73382;SDS011;61600;48.126;11.542;2023-11-19T08:40:24;0.68;;;0.47;;
73382;SDS011;61600;48.126;11.542;2023-11-19T08:42:51;0.95;;;0.43;;
73382;SDS011;61600;48.126;11.542;2023-11-19T08:45:16;0.75;;;0.30;;
73382;SDS011;61600;48.126;11.542;2023-11-19T08:47:42;0.60;;;0.30;;
73382;SDS011;61600;48.126;11.542;2023-11-19T08:50:10;1.15;;;0.60;;
73382;SDS011;61600;48.126;11.542;2023-11-19T08:52:36;0.30;;;0.30;;
73382;SDS011;61600;48.126;11.542;2023-11-19T08:55:02;1.60;;;0.43;;
73382;SDS011;61600;48.126;11.542;2023-11-19T08:57:31;0.73;;;0.50;;
73382;SDS011;61600;48.126;11.542;2023-11-19T08:59:57;0.77;;;0.50;;
73382;SDS011;61600;48.126;11.542;2023-11-19T09:02:22;0.65;;;0.40;;
73382;SDS011;61600;48.126;11.542;2023-11-19T09:04:48;0.68;;;0.30;;
73382;SDS011;61600;48.126;11.542;2023-11-19T09:07:13;1.50;;;0.40;;
73382;SDS011;61600;48.126;11.542;2023-11-19T09:09:39;1.30;;;0.60;;
73382;SDS011;61600;48.126;11.542;2023-11-19T09:12:05;0.95;;;0.40;;
73382;SDS011;61600;48.126;11.542;2023-11-19T09:14:31;0.85;;;0.52;;
73382;SDS011;61600;48.126;11.542;2023-11-19T09:16:57;0.38;;;0.30;;
73382;SDS011;61600;48.126;11.542;2023-11-19T09:19:23;1.02;;;0.68;;
73382;SDS011;61600;48.126;11.542;2023-11-19T09:21:51;2.42;;;1.30;;
73382;SDS011;61600;48.126;11.542;2023-11-19T09:24:16;1.00;;;0.60;;
73382;SDS011;61600;48.126;11.542;2023-11-19T09:26:42;1.35;;;0.45;;
73382;SDS011;61600;48.126;11.542;2023-11-19T09:29:08;1.20;;;0.45;;
73382;SDS011;61600;48.126;11.542;2023-11-19T09:31:33;0.82;;;0.40;;
73382;SDS011;61600;48.126;11.542;2023-11-19T09:34:00;1.08;;;0.47;;
73382;SDS011;61600;48.126;11.542;2023-11-19T09:36:26;0.25;;;0.25;;
73382;SDS011;61600;48.126;11.542;2023-11-19T09:38:51;0.77;;;0.40;;
73382;SDS011;61600;48.126;11.542;2023-11-19T09:41:17;0.90;;;0.50;;
73382;SDS011;61600;48.126;11.542;2023-11-19T09:43:44;0.68;;;0.45;;
73382;SDS011;61600;48.126;11.542;2023-11-19T09:46:10;3.10;;;1.02;;
73382;SDS011;61600;48.126;11.542;2023-11-19T09:48:39;1.50;;;0.85;;
73382;SDS011;61600;48.126;11.542;2023-11-19T09:51:08;2.05;;;0.50;;
73382;SDS011;61600;48.126;11.542;2023-11-19T09:58:29;1.58;;;0.57;;
73382;SDS011;61600;48.126;11.542;2023-11-19T10:00:56;0.38;;;0.38;;
73382;SDS011;61600;48.126;11.542;2023-11-19T10:03:24;0.77;;;0.47;;
73382;SDS011;61600;48.126;11.542;2023-11-19T10:05:52;0.70;;;0.50;;
73382;SDS011;61600;48.126;11.542;2023-11-19T10:08:20;1.73;;;0.95;;
73382;SDS011;61600;48.126;11.542;2023-11-19T10:10:47;0.88;;;0.50;;
73382;SDS011;61600;48.126;11.542;2023-11-19T10:13:12;0.60;;;0.30;;
73382;SDS011;61600;48.126;11.542;2023-11-19T10:15:40;1.13;;;0.60;;
73382;SDS011;61600;48.126;11.542;2023-11-19T10:18:05;0.40;;;0.32;;
73382;SDS011;61600;48.126;11.542;2023-11-19T10:20:37;1.08;;;0.50;;
73382;SDS011;61600;48.126;11.542;2023-11-19T10:23:06;1.25;;;0.50;;
73382;SDS011;61600;48.126;11.542;2023-11-19T10:25:32;0.45;;;0.32;;
73382;SDS011;61600;48.126;11.542;2023-11-19T10:27:59;2.65;;;1.35;;
73382;SDS011;61600;48.126;11.542;2023-11-19T10:30:29;0.57;;;0.47;;
73382;SDS011;61600;48.126;11.542;2023-11-19T10:35:28;0.73;;;0.40;;
73382;SDS011;61600;48.126;11.542;2023-11-19T10:37:54;0.88;;;0.43;;
73382;SDS011;61600;48.126;11.542;2023-11-19T10:40:19;1.55;;;0.60;;
73382;SDS011;61600;48.126;11.542;2023-11-19T10:42:45;1.02;;;0.60;;
73382;SDS011;61600;48.126;11.542;2023-11-19T10:45:23;0.93;;;0.38;;
73382;SDS011;61600;48.126;11.542;2023-11-19T10:47:49;1.25;;;0.55;;
73382;SDS011;61600;48.126;11.542;2023-11-19T10:50:17;1.20;;;0.50;;
73382;SDS011;61600;48.126;11.542;2023-11-19T10:52:43;0.93;;;0.50;;
73382;SDS011;61600;48.126;11.542;2023-11-19T10:55:11;1.17;;;0.55;;
73382;SDS011;61600;48.126;11.542;2023-11-19T10:57:40;1.05;;;0.60;;
73382;SDS011;61600;48.126;11.542;2023-11-19T11:00:12;0.60;;;0.40;;
73382;SDS011;61600;48.126;11.542;2023-11-19T11:02:44;0.20;;;0.20;;
73382;SDS011;61600;48.126;11.542;2023-11-19T11:05:15;1.40;;;0.30;;
73382;SDS011;61600;48.126;11.542;2023-11-19T11:07:42;2.13;;;0.40;;
73382;SDS011;61600;48.126;11.542;2023-11-19T11:10:09;1.73;;;0.80;;
73382;SDS011;61600;48.126;11.542;2023-11-19T11:12:41;0.57;;;0.40;;
73382;SDS011;61600;48.126;11.542;2023-11-19T11:15:10;0.80;;;0.38;;
73382;SDS011;61600;48.126;11.542;2023-11-19T11:17:41;0.30;;;0.20;;
73382;SDS011;61600;48.126;11.542;2023-11-19T11:20:09;0.50;;;0.30;;
73382;SDS011;61600;48.126;11.542;2023-11-19T11:25:38;0.77;;;0.40;;
73382;SDS011;61600;48.126;11.542;2023-11-19T11:31:15;0.10;;;0.10;;
73382;SDS011;61600;48.126;11.542;2023-11-19T11:36:44;2.50;;;0.70;;
73382;SDS011;61600;48.126;11.542;2023-11-19T11:39:14;0.30;;;0.25;;
73382;SDS011;61600;48.126;11.542;2023-11-19T11:41:41;1.05;;;0.40;;
73382;SDS011;61600;48.126;11.542;2023-11-19T11:44:07;0.82;;;0.30;;
73382;SDS011;61600;48.126;11.542;2023-11-19T11:57:01;0.38;;;0.30;;
73382;SDS011;61600;48.126;11.542;2023-11-19T11:59:42;1.65;;;0.55;;
73382;SDS011;61600;48.126;11.542;2023-11-19T12:02:08;0.60;;;0.30;;
73382;SDS011;61600;48.126;11.542;2023-11-19T12:04:39;0.43;;;0.30;;
73382;SDS011;61600;48.126;11.542;2023-11-19T12:07:06;0.77;;;0.30;;
73382;SDS011;61600;48.126;11.542;2023-11-19T12:09:33;0.38;;;0.30;;
73382;SDS011;61600;48.126;11.542;2023-11-19T12:12:07;0.38;;;0.30;;
73382;SDS011;61600;48.126;11.542;2023-11-19T12:20:02;0.10;;;0.10;;
73382;SDS011;61600;48.126;11.542;2023-11-19T12:22:31;0.35;;;0.20;;
73382;SDS011;61600;48.126;11.542;2023-11-19T12:24:57;0.95;;;0.40;;
73382;SDS011;61600;48.126;11.542;2023-11-19T12:27:24;0.35;;;0.30;;
73382;SDS011;61600;48.126;11.542;2023-11-19T12:29:49;0.30;;;0.30;;
73382;SDS011;61600;48.126;11.542;2023-11-19T12:32:15;0.30;;;0.30;;
73382;SDS011;61600;48.126;11.542;2023-11-19T12:34:41;0.40;;;0.40;;
73382;SDS011;61600;48.126;11.542;2023-11-19T12:37:07;0.30;;;0.30;;
73382;SDS011;61600;48.126;11.542;2023-11-19T12:39:35;2.20;;;0.40;;
73382;SDS011;61600;48.126;11.542;2023-11-19T12:42:01;0.50;;;0.30;;
73382;SDS011;61600;48.126;11.542;2023-11-19T12:44:27;1.55;;;0.40;;
73382;SDS011;61600;48.126;11.542;2023-11-19T12:47:05;1.85;;;0.65;;
73382;SDS011;61600;48.126;11.542;2023-11-19T12:51:58;0.63;;;0.30;;
73382;SDS011;61600;48.126;11.542;2023-11-19T12:54:34;1.00;;;0.38;;
73382;SDS011;61600;48.126;11.542;2023-11-19T12:57:00;0.70;;;0.30;;
73382;SDS011;61600;48.126;11.542;2023-11-19T12:59:26;0.75;;;0.40;;
73382;SDS011;61600;48.126;11.542;2023-11-19T13:01:58;1.60;;;0.28;;
73382;SDS011;61600;48.126;11.542;2023-11-19T13:04:29;1.55;;;0.43;;
73382;SDS011;61600;48.126;11.542;2023-11-19T13:06:58;0.57;;;0.50;;
73382;SDS011;61600;48.126;11.542;2023-11-19T13:09:25;0.45;;;0.35;;
73382;SDS011;61600;48.126;11.542;2023-11-19T13:11:53;0.55;;;0.50;;
73382;SDS011;61600;48.126;11.542;2023-11-19T13:14:19;1.05;;;0.50;;
73382;SDS011;61600;48.126;11.542;2023-11-19T13:16:46;2.38;;;0.80;;
73382;SDS011;61600;48.126;11.542;2023-11-19T13:19:16;4.18;;;1.70;;
73382;SDS011;61600;48.126;11.542;2023-11-19T13:21:44;0.95;;;0.60;;
73382;SDS011;61600;48.126;11.542;2023-11-19T13:24:12;0.60;;;0.35;;
73382;SDS011;61600;48.126;11.542;2023-11-19T13:26:38;1.20;;;0.43;;
73382;SDS011;61600;48.126;11.542;2023-11-19T13:29:04;0.40;;;0.30;;
73382;SDS011;61600;48.126;11.542;2023-11-19T13:31:30;1.50;;;0.50;;
73382;SDS011;61600;48.126;11.542;2023-11-19T13:33:55;0.75;;;0.57;;
73382;SDS011;61600;48.126;11.542;2023-11-19T13:36:22;0.63;;;0.50;;
73382;SDS011;61600;48.126;11.542;2023-11-19T13:38:47;0.60;;;0.40;;
73382;SDS011;61600;48.126;11.542;2023-11-19T13:41:13;0.70;;;0.40;;
73382;SDS011;61600;48.126;11.542;2023-11-19T13:43:39;0.47;;;0.22;;
73382;SDS011;61600;48.126;11.542;2023-11-19T13:46:06;1.45;;;0.35;;
73382;SDS011;61600;48.126;11.542;2023-11-19T13:48:31;1.20;;;0.43;;
73382;SDS011;61600;48.126;11.542;2023-11-19T13:50:57;0.57;;;0.40;;
73382;SDS011;61600;48.126;11.542;2023-11-19T13:53:23;1.52;;;0.43;;
73382;SDS011;61600;48.126;11.542;2023-11-19T13:55:49;0.95;;;0.57;;
73382;SDS011;61600;48.126;11.542;2023-11-19T13:58:15;1.88;;;0.88;;
73382;SDS011;61600;48.126;11.542;2023-11-19T14:00:41;1.23;;;0.52;;
73382;SDS011;61600;48.126;11.542;2023-11-19T14:03:09;2.50;;;1.10;;
73382;SDS011;61600;48.126;11.542;2023-11-19T14:05:37;0.40;;;0.40;;
73382;SDS011;61600;48.126;11.542;2023-11-19T14:08:04;0.77;;;0.52;;
73382;SDS011;61600;48.126;11.542;2023-11-19T14:10:39;0.50;;;0.38;;
73382;SDS011;61600;48.126;11.542;2023-11-19T14:13:06;0.75;;;0.45;;
73382;SDS011;61600;48.126;11.542;2023-11-19T14:15:32;2.05;;;0.55;;
73382;SDS011;61600;48.126;11.542;2023-11-19T14:17:58;0.47;;;0.40;;
73382;SDS011;61600;48.126;11.542;2023-11-19T14:20:24;1.75;;;0.50;;
73382;SDS011;61600;48.126;11.542;2023-11-19T14:22:51;1.63;;;0.40;;
73382;SDS011;61600;48.126;11.542;2023-11-19T14:25:18;1.25;;;0.50;;
73382;SDS011;61600;48.126;11.542;2023-11-19T14:27:43;0.28;;;0.28;;
73382;SDS011;61600;48.126;11.542;2023-11-19T14:30:11;0.65;;;0.30;;
73382;SDS011;61600;48.126;11.542;2023-11-19T14:32:41;5.30;;;0.50;;
73382;SDS011;61600;48.126;11.542;2023-11-19T14:35:09;1.20;;;0.50;;
73382;SDS011;61600;48.126;11.542;2023-11-19T14:37:35;0.40;;;0.40;;
73382;SDS011;61600;48.126;11.542;2023-11-19T14:40:02;3.28;;;1.20;;
73382;SDS011;61600;48.126;11.542;2023-11-19T14:42:30;3.13;;;1.20;;
73382;SDS011;61600;48.126;11.542;2023-11-19T14:44:56;1.58;;;0.45;;
73382;SDS011;61600;48.126;11.542;2023-11-19T14:47:22;0.50;;;0.35;;
73382;SDS011;61600;48.126;11.542;2023-11-19T14:49:48;1.30;;;0.60;;
73382;SDS011;61600;48.126;11.542;2023-11-19T14:52:13;0.77;;;0.30;;
73382;SDS011;61600;48.126;11.542;2023-11-19T14:54:40;1.75;;;0.55;;
73382;SDS011;61600;48.126;11.542;2023-11-19T14:57:06;1.23;;;0.40;;
73382;SDS011;61600;48.126;11.542;2023-11-19T14:59:35;0.50;;;0.40;;
73382;SDS011;61600;48.126;11.542;2023-11-19T15:02:01;1.38;;;0.63;;
73382;SDS011;61600;48.126;11.542;2023-11-19T15:04:26;0.70;;;0.50;;
73382;SDS011;61600;48.126;11.542;2023-11-19T15:06:52;1.42;;;0.50;;
73382;SDS011;61600;48.126;11.542;2023-11-19T15:09:20;1.33;;;0.40;;
73382;SDS011;61600;48.126;11.542;2023-11-19T15:11:46;0.77;;;0.47;;